Terminal Aerodrome Forecast
Issued by NWS Pocatello, ID

Home | Current Version | Previous Version | Text Only | Print | Product List | Glossary On
Versions: 1 2 3 4 5 6 7 8 9 10 11 12 13 14
000
FTUS45 KPIH 192300
TAFBYI
TAF
KBYI 192330Z 2000/2024 27008KT P6SM -RA SCT008 BKN025
     FM200200 25007KT P6SM VCSH SCT008 BKN025 OVC070
     FM200500 19007KT P6SM SCT015 BKN070
     FM200800 22007KT P6SM BKN015 BKN070
     FM201500 16007KT P6SM SCT015 BKN060=

USA.gov is the U.S. government's official web portal to all federal, state and local government web resources and services.